createdAt,value
2023-02-28T00:01:33.338Z,59.69
2023-02-28T00:04:01.849Z,59.66
2023-02-28T00:06:31.438Z,59.58
2023-02-28T00:08:59.509Z,59.84
2023-02-28T00:11:27.915Z,59.48
2023-02-28T00:13:56.361Z,59.54
2023-02-28T00:16:25.035Z,59.59
2023-02-28T00:18:53.282Z,59.63
2023-02-28T00:21:22.154Z,59.63
2023-02-28T00:23:51.563Z,59.32
2023-02-28T00:26:21.796Z,59.63
2023-02-28T00:28:51.256Z,59.79
2023-02-28T00:31:19.468Z,59.62
2023-02-28T00:33:50.012Z,59.55
2023-02-28T00:36:18.226Z,59.43
2023-02-28T00:38:46.319Z,59.54
2023-02-28T00:41:15.847Z,59.57
2023-02-28T00:43:43.986Z,59.69
2023-02-28T00:46:12.840Z,59.85
2023-02-28T00:48:40.917Z,59.74
2023-02-28T00:51:08.952Z,59.76
2023-02-28T00:53:37.119Z,59.85
2023-02-28T00:56:05.709Z,59.50
2023-02-28T00:58:35.168Z,59.54
2023-02-28T01:01:03.256Z,59.28
2023-02-28T01:03:31.526Z,59.15
2023-02-28T01:06:00.323Z,59.05
2023-02-28T01:08:28.906Z,59.11
2023-02-28T01:10:57.493Z,59.10
2023-02-28T01:13:26.446Z,59.03
2023-02-28T01:15:58.142Z,59.15
2023-02-28T01:18:26.759Z,59.07
2023-02-28T01:20:55.170Z,59.26
2023-02-28T01:23:25.206Z,59.37
2023-02-28T01:25:53.877Z,59.51
2023-02-28T01:28:22.149Z,59.49
2023-02-28T01:30:52.337Z,59.65
2023-02-28T01:33:22.049Z,59.92
2023-02-28T01:35:50.222Z,60.17
2023-02-28T01:38:23.096Z,60.74
2023-02-28T01:40:51.998Z,60.88
2023-02-28T01:43:24.769Z,61.18
2023-02-28T01:45:54.824Z,61.83
2023-02-28T01:48:28.969Z,62.07
2023-02-28T01:51:01.326Z,62.42
2023-02-28T01:53:34.574Z,62.76
2023-02-28T01:56:06.037Z,62.95
2023-02-28T01:58:34.454Z,63.18
2023-02-28T02:01:04.037Z,63.89
2023-02-28T02:03:33.559Z,64.09
2023-02-28T02:06:01.614Z,63.83
2023-02-28T02:08:31.674Z,64.11
2023-02-28T02:11:02.098Z,64.08
2023-02-28T02:13:47.736Z,64.00
2023-02-28T02:16:33.310Z,64.40
2023-02-28T02:19:17.293Z,64.48
2023-02-28T02:22:13.489Z,64.61
2023-02-28T02:25:16.239Z,64.40
2023-02-28T02:28:13.835Z,64.37
2023-02-28T02:31:07.493Z,64.53
2023-02-28T02:34:26.051Z,64.51
2023-02-28T02:37:04.874Z,64.57
2023-02-28T02:39:43.018Z,64.41
2023-02-28T02:42:17.885Z,64.56
2023-02-28T02:44:50.735Z,64.65
2023-02-28T02:47:23.026Z,64.44
2023-02-28T02:49:54.789Z,64.67
2023-02-28T02:52:29.908Z,64.60
2023-02-28T02:55:00.334Z,64.71
2023-02-28T02:57:35.154Z,64.67
2023-02-28T03:00:06.223Z,64.78
2023-02-28T03:02:35.457Z,64.73
2023-02-28T03:05:07.776Z,64.88
2023-02-28T03:07:37.425Z,65.08
2023-02-28T03:10:20.858Z,65.03
2023-02-28T03:13:06.213Z,65.45
2023-02-28T03:15:47.661Z,65.87
2023-02-28T03:18:25.592Z,65.86
2023-02-28T03:21:02.501Z,65.93
2023-02-28T03:23:40.576Z,66.25
2023-02-28T03:26:18.529Z,66.36
2023-02-28T03:28:55.755Z,66.45
2023-02-28T03:31:29.778Z,66.49
2023-02-28T03:34:03.913Z,66.92
2023-02-28T03:36:42.837Z,66.98
2023-02-28T03:39:16.367Z,67.21
2023-02-28T03:41:50.683Z,67.25
2023-02-28T03:44:24.056Z,67.11
2023-02-28T03:47:02.809Z,67.44
2023-02-28T03:49:35.376Z,67.70
2023-02-28T03:52:06.119Z,68.10
2023-02-28T03:54:39.826Z,68.29
2023-02-28T03:57:18.209Z,68.42
2023-02-28T03:59:50.822Z,68.41
2023-02-28T04:02:19.611Z,69.07
2023-02-28T04:04:49.418Z,69.12
2023-02-28T04:07:18.176Z,69.19
2023-02-28T04:09:47.708Z,68.91
2023-02-28T04:12:15.788Z,69.33
2023-02-28T04:14:43.925Z,69.13
2023-02-28T04:17:12.070Z,68.89
2023-02-28T04:19:40.197Z,68.90
2023-02-28T04:22:08.347Z,68.92
2023-02-28T04:24:36.572Z,68.89
2023-02-28T04:27:06.022Z,68.92
2023-02-28T04:29:34.502Z,68.78
2023-02-28T04:32:04.027Z,68.74
2023-02-28T04:34:34.061Z,69.25
2023-02-28T04:37:12.939Z,69.47
2023-02-28T04:39:42.307Z,69.46
2023-02-28T04:42:12.622Z,69.30
2023-02-28T04:44:40.660Z,69.29
2023-02-28T04:47:08.822Z,69.31
2023-02-28T04:49:36.876Z,69.39
2023-02-28T04:52:04.920Z,69.38
2023-02-28T04:54:32.973Z,69.46
2023-02-28T04:57:02.574Z,69.61
2023-02-28T04:59:31.997Z,69.87
2023-02-28T05:02:00.049Z,70.31
2023-02-28T05:04:28.313Z,70.65
2023-02-28T05:06:56.422Z,70.56
2023-02-28T05:09:24.546Z,70.79
2023-02-28T05:11:52.612Z,71.55
2023-02-28T05:14:20.698Z,71.51
2023-02-28T05:16:50.104Z,72.40
2023-02-28T05:19:18.283Z,72.36
2023-02-28T05:21:53.234Z,73.01
2023-02-28T05:24:23.825Z,72.93
2023-02-28T05:26:53.881Z,72.75
2023-02-28T05:29:22.024Z,72.81
2023-02-28T05:31:51.835Z,72.73
2023-02-28T05:34:20.332Z,72.84
2023-02-28T05:36:48.421Z,72.44
2023-02-28T05:39:16.510Z,72.21
2023-02-28T05:41:45.702Z,72.27
2023-02-28T05:44:13.808Z,72.24
2023-02-28T05:46:41.911Z,71.90
2023-02-28T05:49:11.371Z,71.86
2023-02-28T05:51:41.018Z,71.76
2023-02-28T05:54:09.763Z,71.96
2023-02-28T05:56:40.132Z,71.88
2023-02-28T05:59:08.533Z,72.12
2023-02-28T06:01:38.645Z,72.48
2023-02-28T06:04:14.315Z,72.61
2023-02-28T06:06:49.713Z,72.08
2023-02-28T06:09:17.865Z,72.21
2023-02-28T06:11:46.168Z,71.36
2023-02-28T06:14:17.882Z,70.72
2023-02-28T06:16:46.482Z,70.07
2023-02-28T06:19:16.110Z,70.63
2023-02-28T06:21:44.833Z,70.07
2023-02-28T06:24:14.255Z,70.39
2023-02-28T06:26:42.392Z,70.20
2023-02-28T06:29:10.455Z,70.07
2023-02-28T06:31:39.463Z,69.97
2023-02-28T06:34:07.572Z,70.14
2023-02-28T06:36:35.759Z,70.56
2023-02-28T06:39:03.873Z,70.20
2023-02-28T06:41:53.550Z,70.28
2023-02-28T06:44:24.212Z,70.23
2023-02-28T06:46:52.329Z,70.33
2023-02-28T06:49:20.480Z,70.50
2023-02-28T06:51:48.502Z,70.44
2023-02-28T06:54:16.598Z,70.02
2023-02-28T06:56:46.063Z,69.91
2023-02-28T06:59:14.176Z,69.87
2023-02-28T07:01:42.733Z,69.68
2023-02-28T07:04:11.179Z,69.68
2023-02-28T07:06:39.233Z,69.50
2023-02-28T07:09:10.406Z,69.85
2023-02-28T07:11:38.530Z,69.23
2023-02-28T07:14:08.017Z,69.15
2023-02-28T07:16:36.167Z,68.97
2023-02-28T07:19:04.294Z,68.66
2023-02-28T07:21:32.585Z,68.32
2023-02-28T07:24:00.692Z,67.95
2023-02-28T07:26:28.956Z,67.73
2023-02-28T07:28:56.977Z,67.53
2023-02-28T07:31:26.494Z,66.98
2023-02-28T07:33:55.014Z,66.92
2023-02-28T07:36:23.217Z,66.79
2023-02-28T07:38:51.929Z,66.52
2023-02-28T07:41:21.573Z,66.29
2023-02-28T07:43:49.972Z,65.81
2023-02-28T07:46:21.362Z,65.29
2023-02-28T07:48:50.909Z,65.07
2023-02-28T07:51:19.286Z,64.86
2023-02-28T07:53:47.474Z,64.60
2023-02-28T07:56:15.483Z,64.20
2023-02-28T07:58:43.664Z,64.18
2023-02-28T08:01:12.898Z,63.56
2023-02-28T08:03:42.067Z,63.08
2023-02-28T08:06:18.701Z,62.77
2023-02-28T08:08:46.901Z,62.15
2023-02-28T08:11:14.942Z,62.26
2023-02-28T08:13:45.014Z,61.99
2023-02-28T08:16:16.518Z,61.76
2023-02-28T08:18:44.703Z,61.13
2023-02-28T08:21:14.175Z,60.42
2023-02-28T08:23:42.360Z,59.67
2023-02-28T08:26:10.454Z,59.34
2023-02-28T08:28:38.515Z,58.11
2023-02-28T08:31:10.320Z,57.92
2023-02-28T08:33:40.076Z,57.63
2023-02-28T08:36:09.762Z,56.27
2023-02-28T08:38:39.676Z,55.75
2023-02-28T08:41:10.133Z,54.94
2023-02-28T08:43:38.610Z,54.13
2023-02-28T08:46:07.805Z,54.16
2023-02-28T08:48:38.965Z,54.74
2023-02-28T08:51:12.282Z,54.59
2023-02-28T08:53:42.535Z,52.95
2023-02-28T08:56:13.258Z,53.02
2023-02-28T08:58:42.026Z,53.03
2023-02-28T09:01:13.088Z,52.63
2023-02-28T09:03:42.557Z,53.09
2023-02-28T09:06:12.436Z,53.37
2023-02-28T09:08:42.469Z,54.12
2023-02-28T09:11:10.945Z,53.26
2023-02-28T09:13:41.974Z,52.54
2023-02-28T09:16:13.322Z,52.72
2023-02-28T09:18:42.551Z,51.31
2023-02-28T09:21:14.590Z,51.59
2023-02-28T09:23:45.057Z,51.35
2023-02-28T09:26:16.497Z,52.01
2023-02-28T09:28:44.648Z,51.81
2023-02-28T09:31:15.808Z,51.80
2023-02-28T09:33:44.015Z,51.13
2023-02-28T09:36:12.119Z,50.75
2023-02-28T09:38:40.771Z,50.52
2023-02-28T09:41:16.769Z,50.83
2023-02-28T09:43:48.008Z,51.59
2023-02-28T09:46:33.676Z,50.95
2023-02-28T09:49:04.678Z,50.52
2023-02-28T09:51:42.417Z,50.60
2023-02-28T09:54:19.809Z,50.81
2023-02-28T09:56:54.345Z,50.94
2023-02-28T09:59:38.249Z,50.91
2023-02-28T10:02:15.820Z,50.97
2023-02-28T10:04:52.646Z,51.10
2023-02-28T10:07:39.947Z,51.18
2023-02-28T10:10:22.510Z,51.17
2023-02-28T10:12:54.872Z,51.83
2023-02-28T10:15:27.386Z,51.57
2023-02-28T10:18:08.452Z,50.96
2023-02-28T10:20:39.656Z,52.67
2023-02-28T10:23:15.300Z,52.70
2023-02-28T10:25:49.110Z,52.04
2023-02-28T10:28:20.084Z,51.70
2023-02-28T10:30:50.254Z,51.39
2023-02-28T10:33:23.706Z,50.68
2023-02-28T10:35:51.945Z,50.55
2023-02-28T10:38:22.360Z,51.75
2023-02-28T10:40:50.534Z,51.82
2023-02-28T10:43:25.721Z,50.29
2023-02-28T10:46:04.546Z,49.76
2023-02-28T10:48:36.401Z,49.82
2023-02-28T10:51:05.974Z,49.66
2023-02-28T10:53:57.578Z,49.51
2023-02-28T10:56:28.407Z,49.93
2023-02-28T10:58:59.731Z,50.19
2023-02-28T11:01:39.157Z,50.74
2023-02-28T11:04:22.600Z,50.57
2023-02-28T11:06:59.973Z,51.26
2023-02-28T11:09:32.810Z,51.59
2023-02-28T11:12:01.512Z,51.16
2023-02-28T11:14:33.482Z,51.48
2023-02-28T11:17:17.389Z,52.15
2023-02-28T11:19:49.863Z,52.52
2023-02-28T11:22:22.256Z,52.34
2023-02-28T11:24:55.026Z,52.20
2023-02-28T11:27:48.033Z,50.97
2023-02-28T11:30:36.242Z,51.51
2023-02-28T11:33:23.642Z,51.87
2023-02-28T11:35:53.449Z,51.51
2023-02-28T11:38:21.707Z,53.16
2023-02-28T11:41:01.854Z,51.69
2023-02-28T11:43:43.185Z,51.06
2023-02-28T11:46:23.435Z,50.32
2023-02-28T11:49:00.743Z,49.92
2023-02-28T11:51:34.743Z,49.64
2023-02-28T11:54:26.788Z,50.23
2023-02-28T11:56:59.851Z,50.02
2023-02-28T11:59:49.137Z,50.10
2023-02-28T12:02:30.796Z,50.32
2023-02-28T12:05:20.078Z,50.14
2023-02-28T12:07:57.470Z,48.71
2023-02-28T12:10:28.302Z,48.91
2023-02-28T12:13:10.541Z,49.48
2023-02-28T12:16:19.783Z,48.71
2023-02-28T12:19:05.778Z,48.00
2023-02-28T12:21:47.482Z,47.25
2023-02-28T12:24:39.995Z,44.44
2023-02-28T12:27:12.162Z,43.42
2023-02-28T12:29:49.141Z,42.46
2023-02-28T12:32:22.791Z,40.70
2023-02-28T12:34:57.298Z,40.67
2023-02-28T12:37:30.248Z,40.28
2023-02-28T12:40:06.630Z,38.97
2023-02-28T12:42:40.818Z,38.33
2023-02-28T12:45:14.545Z,37.28
2023-02-28T12:47:46.854Z,37.96
2023-02-28T12:50:17.672Z,38.41
2023-02-28T12:52:55.389Z,37.34
2023-02-28T12:55:29.679Z,37.56
2023-02-28T12:58:10.579Z,37.85
2023-02-28T13:00:47.150Z,38.69
2023-02-28T13:03:52.897Z,38.43
2023-02-28T13:06:43.918Z,38.80
2023-02-28T13:09:13.644Z,38.83
2023-02-28T13:11:44.943Z,39.95
2023-02-28T13:14:25.742Z,40.33
2023-02-28T13:17:00.634Z,40.68
2023-02-28T13:19:31.493Z,40.01
2023-02-28T13:22:03.087Z,39.90
2023-02-28T13:24:50.523Z,39.89
2023-02-28T13:27:34.975Z,40.39
2023-02-28T13:30:03.771Z,41.43
2023-02-28T13:32:40.168Z,40.96
2023-02-28T13:35:17.132Z,41.06
2023-02-28T13:37:50.913Z,41.65
2023-02-28T13:40:38.199Z,41.58
2023-02-28T13:43:10.619Z,41.07
2023-02-28T13:45:40.796Z,41.60
2023-02-28T13:48:20.138Z,42.36
2023-02-28T13:50:49.068Z,42.54
2023-02-28T13:54:00.285Z,42.33
2023-02-28T13:56:41.825Z,42.16
2023-02-28T13:59:24.808Z,42.34
2023-02-28T14:02:15.957Z,43.15
2023-02-28T14:05:02.798Z,43.83
2023-02-28T14:07:36.563Z,43.69
2023-02-28T14:10:09.653Z,43.63
2023-02-28T14:13:03.234Z,43.83
2023-02-28T14:15:49.225Z,43.25
2023-02-28T14:18:27.036Z,43.24
2023-02-28T14:21:00.265Z,45.01
2023-02-28T14:23:57.930Z,44.48
2023-02-28T14:26:53.588Z,45.58
2023-02-28T14:29:39.529Z,45.10
2023-02-28T14:32:17.098Z,44.28
2023-02-28T14:34:53.133Z,44.23
2023-02-28T14:37:27.119Z,44.83
2023-02-28T14:39:57.306Z,45.23
2023-02-28T14:42:35.024Z,45.36
2023-02-28T14:45:03.879Z,45.18
2023-02-28T14:47:34.759Z,45.45
2023-02-28T14:50:06.236Z,45.77
2023-02-28T14:52:35.266Z,46.47
2023-02-28T14:55:08.179Z,46.56
2023-02-28T14:57:42.919Z,45.94
2023-02-28T15:00:18.385Z,49.19
2023-02-28T15:02:46.636Z,47.20
2023-02-28T15:05:34.275Z,47.17
2023-02-28T15:08:14.909Z,47.46
2023-02-28T15:10:45.727Z,46.90
2023-02-28T15:13:17.149Z,46.68
2023-02-28T15:16:05.239Z,47.21
2023-02-28T15:18:46.896Z,46.38
2023-02-28T15:21:19.220Z,46.76
2023-02-28T15:23:53.674Z,47.18
2023-02-28T15:26:24.681Z,45.73
2023-02-28T15:28:59.581Z,46.92
2023-02-28T15:31:37.053Z,46.95
2023-02-28T15:34:21.920Z,48.04
2023-02-28T15:36:51.346Z,48.17
2023-02-28T15:39:24.371Z,47.33
2023-02-28T15:41:52.974Z,46.36
2023-02-28T15:44:31.259Z,46.25
2023-02-28T15:47:03.300Z,46.37
2023-02-28T15:49:44.916Z,46.53
2023-02-28T15:52:17.903Z,46.59
2023-02-28T15:54:47.064Z,46.93
2023-02-28T15:57:19.738Z,46.91
2023-02-28T15:59:54.059Z,46.29
2023-02-28T16:02:24.235Z,47.12
2023-02-28T16:05:04.294Z,47.65
2023-02-28T16:07:32.608Z,47.49
2023-02-28T16:10:01.315Z,48.33
2023-02-28T16:12:31.922Z,48.59
2023-02-28T16:15:04.055Z,48.90
2023-02-28T16:17:35.910Z,49.20
2023-02-28T16:20:14.678Z,49.21
2023-02-28T16:22:43.852Z,49.86
2023-02-28T16:25:14.254Z,50.24
2023-02-28T16:27:44.017Z,50.24
2023-02-28T16:30:21.053Z,50.44
2023-02-28T16:32:50.189Z,50.73
2023-02-28T16:35:18.990Z,51.00
2023-02-28T16:37:47.723Z,52.40
2023-02-28T16:40:17.529Z,51.91
2023-02-28T16:42:47.741Z,52.24
2023-02-28T16:45:24.032Z,52.53
2023-02-28T16:47:52.538Z,53.32
2023-02-28T16:50:22.609Z,53.90
2023-02-28T16:52:53.210Z,53.73
2023-02-28T16:55:21.538Z,53.98
2023-02-28T16:57:53.985Z,53.71
2023-02-28T17:00:24.823Z,53.52
2023-02-28T17:02:53.201Z,53.75
2023-02-28T17:05:21.822Z,53.88
2023-02-28T17:07:50.720Z,53.71
2023-02-28T17:10:21.602Z,54.05
2023-02-28T17:12:50.175Z,54.90
2023-02-28T17:15:20.676Z,55.27
2023-02-28T17:17:51.185Z,55.32
2023-02-28T17:20:23.652Z,55.70
2023-02-28T17:22:52.405Z,56.22
2023-02-28T17:25:20.806Z,56.16
2023-02-28T17:27:49.607Z,56.02
2023-02-28T17:30:19.751Z,56.15
2023-02-28T17:32:48.212Z,56.93
2023-02-28T17:35:18.178Z,57.26
2023-02-28T17:37:46.472Z,57.30
2023-02-28T17:40:16.700Z,57.11
2023-02-28T17:42:45.252Z,56.90
2023-02-28T17:45:14.258Z,57.06
2023-02-28T17:47:44.130Z,56.96
2023-02-28T17:50:17.028Z,56.82
2023-02-28T17:52:47.329Z,56.67
2023-02-28T17:55:15.983Z,56.89
2023-02-28T17:57:44.227Z,57.10
2023-02-28T18:00:14.821Z,57.09
2023-02-28T18:02:44.051Z,57.16
2023-02-28T18:05:12.773Z,57.33
2023-02-28T18:07:41.755Z,57.18
2023-02-28T18:10:16.231Z,57.49
2023-02-28T18:12:45.037Z,57.32
2023-02-28T18:15:13.210Z,57.45
2023-02-28T18:17:41.497Z,57.94
2023-02-28T18:20:11.914Z,57.92
2023-02-28T18:22:40.496Z,58.15
2023-02-28T18:25:14.703Z,58.05
2023-02-28T18:27:54.155Z,58.33
2023-02-28T18:30:23.250Z,58.45
2023-02-28T18:32:51.703Z,59.02
2023-02-28T18:35:34.888Z,58.73
2023-02-28T18:38:05.636Z,58.73
2023-02-28T18:40:35.252Z,59.49
2023-02-28T18:43:03.660Z,59.28
2023-02-28T18:45:32.319Z,59.53
2023-02-28T18:48:00.516Z,59.69
2023-02-28T18:50:29.653Z,59.65
2023-02-28T18:52:59.277Z,59.95
2023-02-28T18:55:27.980Z,59.95
2023-02-28T18:57:57.561Z,60.26
2023-02-28T19:00:26.048Z,60.21
2023-02-28T19:02:54.212Z,60.19
2023-02-28T19:05:22.659Z,60.17
2023-02-28T19:07:51.637Z,60.21
2023-02-28T19:10:19.979Z,60.69
2023-02-28T19:12:49.294Z,60.77
2023-02-28T19:15:19.031Z,60.61
2023-02-28T19:17:47.363Z,60.51
2023-02-28T19:20:15.554Z,60.61
2023-02-28T19:22:44.316Z,60.51
2023-02-28T19:25:12.760Z,60.81
2023-02-28T19:27:40.959Z,60.68
2023-02-28T19:30:10.926Z,61.15
2023-02-28T19:32:40.505Z,60.92
2023-02-28T19:35:09.438Z,61.28
2023-02-28T19:37:39.967Z,61.24
2023-02-28T19:40:09.990Z,61.23
2023-02-28T19:42:38.586Z,61.37
2023-02-28T19:45:10.202Z,61.38
2023-02-28T19:47:41.736Z,61.22
2023-02-28T19:50:12.341Z,61.31
2023-02-28T19:55:14.088Z,61.23
2023-02-28T19:57:42.132Z,61.32
2023-02-28T20:00:12.359Z,61.75
2023-02-28T20:02:43.940Z,62.01
2023-02-28T20:05:13.449Z,62.18
2023-02-28T20:07:41.480Z,62.24
2023-02-28T20:10:11.004Z,62.23
2023-02-28T20:12:39.150Z,62.53
2023-02-28T20:15:08.570Z,62.70
2023-02-28T20:17:36.767Z,63.55
2023-02-28T20:20:05.561Z,64.54
2023-02-28T20:22:38.264Z,64.78
2023-02-28T20:25:08.112Z,64.40
2023-02-28T20:27:36.391Z,64.30
2023-02-28T20:30:05.798Z,64.39
2023-02-28T20:32:34.006Z,64.53
2023-02-28T20:35:02.119Z,65.07
2023-02-28T20:37:30.316Z,65.07
2023-02-28T20:40:00.079Z,64.65
2023-02-28T20:42:28.185Z,64.38
2023-02-28T20:44:56.219Z,64.36
2023-02-28T20:47:24.271Z,64.21
2023-02-28T20:49:52.369Z,63.84
2023-02-28T20:52:20.480Z,63.83
2023-02-28T20:54:48.559Z,63.73
2023-02-28T20:57:17.946Z,63.73
2023-02-28T20:59:46.102Z,63.80
2023-02-28T21:02:17.688Z,63.60
2023-02-28T21:04:45.952Z,63.84
2023-02-28T21:07:13.961Z,63.79
2023-02-28T21:09:42.313Z,63.85
2023-02-28T21:12:11.509Z,64.10
2023-02-28T21:14:41.567Z,65.49
2023-02-28T21:17:10.523Z,66.00
2023-02-28T21:19:38.648Z,65.90
2023-02-28T21:22:06.772Z,65.87
2023-02-28T21:24:34.853Z,65.97
2023-02-28T21:27:02.930Z,64.72
2023-02-28T21:29:31.051Z,64.33
2023-02-28T21:32:00.631Z,64.48
2023-02-28T21:34:29.576Z,64.56
2023-02-28T21:36:57.622Z,65.33
2023-02-28T21:39:28.885Z,65.39
2023-02-28T21:42:03.895Z,66.09
2023-02-28T21:44:34.436Z,67.16
2023-02-28T21:47:04.180Z,68.02
2023-02-28T21:49:32.559Z,67.70
2023-02-28T21:52:00.808Z,67.33
2023-02-28T21:54:28.869Z,67.22
2023-02-28T21:56:57.485Z,65.81
2023-02-28T21:59:25.851Z,66.81
2023-02-28T22:01:55.232Z,67.13
2023-02-28T22:04:25.047Z,65.65
2023-02-28T22:06:54.879Z,66.48
2023-02-28T22:09:23.360Z,65.57
2023-02-28T22:11:51.791Z,67.83
2023-02-28T22:14:20.439Z,67.37
2023-02-28T22:16:52.589Z,67.02
2023-02-28T22:19:22.044Z,65.85
2023-02-28T22:21:53.826Z,65.67
2023-02-28T22:24:24.602Z,65.87
2023-02-28T22:26:53.702Z,65.42
2023-02-28T22:29:21.860Z,66.12
2023-02-28T22:31:50.068Z,65.32
2023-02-28T22:34:18.290Z,67.30
2023-02-28T22:36:46.381Z,64.94
2023-02-28T22:39:15.916Z,65.29
2023-02-28T22:41:43.982Z,66.79
2023-02-28T22:44:12.242Z,69.23
2023-02-28T22:46:40.362Z,67.43
2023-02-28T22:49:08.524Z,67.21
2023-02-28T22:51:36.598Z,68.02
2023-02-28T22:54:05.013Z,66.18
2023-02-28T22:56:34.661Z,66.32
2023-02-28T22:59:03.430Z,65.66
2023-02-28T23:01:33.641Z,65.11
2023-02-28T23:04:02.826Z,64.72
2023-02-28T23:06:32.716Z,65.04
2023-02-28T23:09:02.626Z,64.74
2023-02-28T23:11:35.718Z,65.31
2023-02-28T23:14:04.711Z,65.07
2023-02-28T23:16:35.761Z,65.63
2023-02-28T23:19:06.090Z,65.58
2023-02-28T23:21:34.665Z,66.11
2023-02-28T23:24:03.890Z,66.36
2023-02-28T23:26:32.726Z,66.43
2023-02-28T23:29:02.340Z,65.33
2023-02-28T23:31:30.491Z,64.89
2023-02-28T23:33:58.937Z,64.66
2023-02-28T23:36:27.002Z,64.81
2023-02-28T23:38:55.174Z,66.57
2023-02-28T23:41:24.738Z,66.91
2023-02-28T23:43:54.580Z,67.06
2023-02-28T23:46:24.086Z,67.27
2023-02-28T23:48:52.090Z,67.76
2023-02-28T23:51:22.421Z,67.92
2023-02-28T23:53:53.440Z,68.06
2023-02-28T23:56:22.914Z,69.01
2023-02-28T23:58:52.055Z,69.48
